sensor_id;sensor_type;location;lat;lon;timestamp;P1;durP1;ratioP1;P2;durP2;ratioP2
50563;SDS011;36514;52.590;21.448;2023-07-22T08:21:53;153.62;;;146.86;;
50563;SDS011;36514;52.590;21.448;2023-07-22T08:31:51;196.52;;;188.06;;
50563;SDS011;36514;52.590;21.448;2023-07-22T08:41:43;72.20;;;69.02;;
50563;SDS011;36514;52.590;21.448;2023-07-22T08:51:44;55.87;;;53.28;;
50563;SDS011;36514;52.590;21.448;2023-07-22T09:01:47;50.00;;;47.75;;
50563;SDS011;36514;52.590;21.448;2023-07-22T09:11:45;44.05;;;42.05;;
50563;SDS011;36514;52.590;21.448;2023-07-22T09:21:55;149.14;;;142.55;;
50563;SDS011;36514;52.590;21.448;2023-07-22T09:32:22;29.83;;;28.20;;
50563;SDS011;36514;52.590;21.448;2023-07-22T09:42:36;17.70;;;16.85;;
50563;SDS011;36514;52.590;21.448;2023-07-22T09:52:34;116.82;;;111.71;;
50563;SDS011;36514;52.590;21.448;2023-07-22T10:03:10;71.17;;;68.02;;
50563;SDS011;36514;52.590;21.448;2023-07-22T10:12:34;166.00;;;158.58;;
50563;SDS011;36514;52.590;21.448;2023-07-22T10:22:17;148.90;;;142.33;;
50563;SDS011;36514;52.590;21.448;2023-07-22T10:32:41;93.83;;;89.65;;
50563;SDS011;36514;52.590;21.448;2023-07-22T10:42:57;193.84;;;185.45;;
50563;SDS011;36514;52.590;21.448;2023-07-22T11:03:12;105.59;;;100.95;;
50563;SDS011;36514;52.590;21.448;2023-07-22T11:13:29;37.07;;;35.38;;
50563;SDS011;36514;52.590;21.448;2023-07-22T11:22:57;124.23;;;118.84;;
50563;SDS011;36514;52.590;21.448;2023-07-22T11:32:45;264.34;;;253.02;;
50563;SDS011;36514;52.590;21.448;2023-07-22T11:42:44;199.55;;;190.91;;
50563;SDS011;36514;52.590;21.448;2023-07-22T11:52:37;287.97;;;275.37;;
50563;SDS011;36514;52.590;21.448;2023-07-22T12:02:20;227.25;;;217.43;;
50563;SDS011;36514;52.590;21.448;2023-07-22T12:12:50;131.41;;;125.77;;
50563;SDS011;36514;52.590;21.448;2023-07-22T12:22:55;94.65;;;90.56;;
50563;SDS011;36514;52.590;21.448;2023-07-22T12:32:36;151.09;;;144.50;;
50563;SDS011;36514;52.590;21.448;2023-07-22T12:42:41;192.72;;;184.11;;
50563;SDS011;36514;52.590;21.448;2023-07-22T12:52:53;106.57;;;101.85;;
50563;SDS011;36514;52.590;21.448;2023-07-22T13:02:55;107.85;;;103.05;;
50563;SDS011;36514;52.590;21.448;2023-07-22T13:12:57;29.62;;;28.14;;
50563;SDS011;36514;52.590;21.448;2023-07-22T13:22:56;30.92;;;29.48;;
50563;SDS011;36514;52.590;21.448;2023-07-22T13:32:29;83.41;;;79.77;;
50563;SDS011;36514;52.590;21.448;2023-07-22T13:42:18;220.21;;;210.88;;
50563;SDS011;36514;52.590;21.448;2023-07-22T13:52:40;116.65;;;111.59;;
50563;SDS011;36514;52.590;21.448;2023-07-22T14:02:39;122.08;;;116.81;;
50563;SDS011;36514;52.590;21.448;2023-07-22T14:12:18;39.97;;;38.20;;
50563;SDS011;36514;52.590;21.448;2023-07-22T14:22:10;85.35;;;81.27;;
50563;SDS011;36514;52.590;21.448;2023-07-22T14:31:59;328.46;;;313.28;;
50563;SDS011;36514;52.590;21.448;2023-07-22T14:41:50;537.08;;;509.83;;
50563;SDS011;36514;52.590;21.448;2023-07-22T14:51:45;746.04;;;698.15;;
50563;SDS011;36514;52.590;21.448;2023-07-22T15:01:47;728.95;;;683.79;;
50563;SDS011;36514;52.590;21.448;2023-07-22T15:11:41;709.85;;;666.49;;
50563;SDS011;36514;52.590;21.448;2023-07-22T15:21:38;766.00;;;716.11;;
50563;SDS011;36514;52.590;21.448;2023-07-22T15:31:31;879.83;;;811.38;;
50563;SDS011;36514;52.590;21.448;2023-07-22T15:41:37;785.43;;;732.95;;
50563;SDS011;36514;52.590;21.448;2023-07-22T15:51:43;643.35;;;607.30;;
50563;SDS011;36514;52.590;21.448;2023-07-22T16:01:43;526.17;;;499.75;;
50563;SDS011;36514;52.590;21.448;2023-07-22T16:11:36;586.83;;;555.45;;
50563;SDS011;36514;52.590;21.448;2023-07-22T16:21:29;561.22;;;529.80;;
50563;SDS011;36514;52.590;21.448;2023-07-22T16:31:29;664.47;;;626.22;;
50563;SDS011;36514;52.590;21.448;2023-07-22T16:41:25;656.55;;;619.11;;
50563;SDS011;36514;52.590;21.448;2023-07-22T16:51:22;711.54;;;668.66;;
50563;SDS011;36514;52.590;21.448;2023-07-22T17:01:17;716.15;;;672.87;;
50563;SDS011;36514;52.590;21.448;2023-07-22T17:11:11;787.05;;;735.00;;
50563;SDS011;36514;52.590;21.448;2023-07-22T17:21:06;893.60;;;825.56;;
50563;SDS011;36514;52.590;21.448;2023-07-22T17:31:01;957.56;;;877.80;;
50563;SDS011;36514;52.590;21.448;2023-07-22T17:40:57;996.75;;;902.65;;
50563;SDS011;36514;52.590;21.448;2023-07-22T17:50:53;963.78;;;883.49;;
50563;SDS011;36514;52.590;21.448;2023-07-22T18:00:50;969.22;;;887.07;;
50563;SDS011;36514;52.590;21.448;2023-07-22T18:10:46;981.70;;;896.67;;
50563;SDS011;36514;52.590;21.448;2023-07-22T18:20:42;996.64;;;897.62;;
50563;SDS011;36514;52.590;21.448;2023-07-22T18:30:40;1042.78;;;922.41;;
50563;SDS011;36514;52.590;21.448;2023-07-22T18:40:35;1097.17;;;927.30;;
50563;SDS011;36514;52.590;21.448;2023-07-22T18:50:31;1192.01;;;945.35;;
50563;SDS011;36514;52.590;21.448;2023-07-22T19:00:28;1316.98;;;956.12;;
50563;SDS011;36514;52.590;21.448;2023-07-22T19:10:25;1441.04;;;963.95;;
50563;SDS011;36514;52.590;21.448;2023-07-22T19:20:21;1603.85;;;972.91;;
50563;SDS011;36514;52.590;21.448;2023-07-22T19:30:18;1749.89;;;974.32;;
50563;SDS011;36514;52.590;21.448;2023-07-22T19:40:15;1817.80;;;980.75;;
50563;SDS011;36514;52.590;21.448;2023-07-22T19:50:12;1844.37;;;985.84;;
50563;SDS011;36514;52.590;21.448;2023-07-22T20:00:10;1930.12;;;989.73;;
50563;SDS011;36514;52.590;21.448;2023-07-22T20:10:07;1916.45;;;988.07;;
50563;SDS011;36514;52.590;21.448;2023-07-22T20:20:05;1945.54;;;990.12;;
50563;SDS011;36514;52.590;21.448;2023-07-22T20:30:02;1806.31;;;992.70;;
50563;SDS011;36514;52.590;21.448;2023-07-22T20:39:59;1463.04;;;967.48;;
50563;SDS011;36514;52.590;21.448;2023-07-22T20:49:58;1412.97;;;958.08;;
50563;SDS011;36514;52.590;21.448;2023-07-22T20:59:55;1403.30;;;947.22;;
50563;SDS011;36514;52.590;21.448;2023-07-22T21:09:52;1549.27;;;945.00;;
50563;SDS011;36514;52.590;21.448;2023-07-22T21:19:49;1615.64;;;957.07;;
50563;SDS011;36514;52.590;21.448;2023-07-22T21:29:46;1720.01;;;981.21;;
50563;SDS011;36514;52.590;21.448;2023-07-22T21:39:43;1743.14;;;966.79;;
50563;SDS011;36514;52.590;21.448;2023-07-22T21:49:40;1761.83;;;975.66;;
50563;SDS011;36514;52.590;21.448;2023-07-22T21:59:37;1762.65;;;982.85;;
